Terminal Aerodrome Forecast
Issued by NWS

Home | Current Version | Previous Version | Graphics & Text | Print | Product List | Glossary On
Versions: 1 2 3 4 5 6 7 8 9 10 11 12 13 14 15 16 17 18 19 20 21 22 23 24 25 26 27 28 29 30 31 32
000
FTUS43 KLOT 270300 AAA
TAFDPA
TAF AMD
KDPA 270300Z 2703/2724 35010KT P6SM OVC040
     FM270700 01010KT P6SM VCSH BKN025 OVC040
     FM271500 35013G18KT P6SM BKN050=

USA.gov is the U.S. government's official web portal to all federal, state and local government web resources and services.